Wetterdaten: Woche 27.06.16 - 03.07.16 (KW26)
Datum Zeit Temp. Aussen Temp. o. S. +5cm Feuchte Auss BlattFeu 1 Luftdruck Regen Sonnenschein Regendauer Solar Windben Empfang
27.06.2016 00:00 13,4 C 12,8 C 11,5 C 90 % 0 lf 1017,9 hPa 0,0 l/m 0,00 h 0,00 h 0 W/m 9,3 km/h (2 Bft) 93,12 %
27.06.2016 01:00 13,0 C 12,7 C 11,2 C 92 % 0 lf 1017,8 hPa 0,0 l/m 0,00 h 0,00 h 0 W/m 10,1 km/h (2 Bft) 95,94 %
27.06.2016 02:00 12,9 C 12,8 C 11,3 C 93 % 0 lf 1017,8 hPa 0,0 l/m 0,00 h 0,00 h 0 W/m 8,3 km/h (2 Bft) 96,15 %
27.06.2016 03:00 12,8 C 12,7 C 11,5 C 94 % 0 lf 1017,6 hPa 0,0 l/m 0,00 h 0,00 h 0 W/m 9,2 km/h (2 Bft) 97,15 %
27.06.2016 04:00 12,8 C 12,8 C 11,3 C 94 % 0 lf 1017,5 hPa 0,0 l/m 0,00 h 0,00 h 0 W/m 15,6 km/h (3 Bft) 95,47 %
27.06.2016 05:00 12,6 C 12,3 C 11,1 C 93 % 0 lf 1017,6 hPa 0,0 l/m 0,30 h 0,00 h 19 W/m 14,0 km/h (3 Bft) 94,88 %
27.06.2016 06:00 12,9 C 13,6 C 12,5 C 93 % 0 lf 1017,5 hPa 0,0 l/m 0,80 h 0,00 h 111 W/m 16,9 km/h (3 Bft) 97,30 %
27.06.2016 07:00 13,5 C 14,4 C 13,0 C 90 % 0 lf 1017,5 hPa 0,0 l/m 0,50 h 0,00 h 142 W/m 17,3 km/h (3 Bft) 96,06 %
27.06.2016 08:00 14,6 C 16,8 C 15,3 C 88 % 0 lf 1017,5 hPa 0,0 l/m 0,37 h 0,00 h 224 W/m 17,6 km/h (3 Bft) 96,03 %
27.06.2016 09:00 16,1 C 18,6 C 17,2 C 83 % 0 lf 1017,5 hPa 0,0 l/m 0,57 h 0,00 h 291 W/m 20,5 km/h (4 Bft) 95,23 %
27.06.2016 10:00 16,6 C 18,2 C 17,6 C 82 % 0 lf 1017,5 hPa 0,0 l/m 0,13 h 0,03 h 265 W/m 21,4 km/h (4 Bft) 97,43 %
27.06.2016 11:00 17,0 C 18,5 C 18,3 C 83 % 0 lf 1017,5 hPa 0,0 l/m 0,10 h 0,00 h 299 W/m 22,7 km/h (4 Bft) 96,03 %
27.06.2016 12:00 17,5 C 18,7 C 18,2 C 83 % 0 lf 1017,3 hPa 0,0 l/m 0,00 h 0,00 h 229 W/m 19,1 km/h (3 Bft) 96,15 %
27.06.2016 13:00 17,6 C 18,9 C 18,3 C 85 % 0 lf 1017,3 hPa 0,0 l/m 0,00 h 0,00 h 229 W/m 20,2 km/h (4 Bft) 96,17 %
27.06.2016 14:00 17,8 C 18,7 C 18,1 C 86 % 0 lf 1017,0 hPa 0,0 l/m 0,00 h 0,10 h 174 W/m 21,3 km/h (4 Bft) 96,33 %
27.06.2016 15:00 17,6 C 17,2 C 16,6 C 91 % 10 lf 1017,1 hPa 0,8 l/m 0,00 h 0,80 h 209 W/m 21,1 km/h (4 Bft) 96,64 %
27.06.2016 16:00 17,4 C 16,8 C 16,4 C 95 % 15 lf 1017,0 hPa 0,6 l/m 0,00 h 0,67 h 168 W/m 17,0 km/h (3 Bft) 93,31 %
27.06.2016 17:00 17,8 C 18,3 C 17,7 C 96 % 6 lf 1016,9 hPa 0,2 l/m 0,43 h 0,00 h 293 W/m 20,6 km/h (4 Bft) 97,78 %
27.06.2016 18:00 18,5 C 18,7 C 17,1 C 93 % 4 lf 1016,7 hPa 1,4 l/m 0,17 h 0,27 h 157 W/m 17,1 km/h (3 Bft) 97,33 %
27.06.2016 19:00 17,7 C 16,8 C 16,2 C 93 % 15 lf 1017,1 hPa 0,2 l/m 0,50 h 0,07 h 136 W/m 14,6 km/h (3 Bft) 92,77 %
27.06.2016 20:00 16,7 C 15,9 C 14,9 C 93 % 6 lf 1017,4 hPa 0,0 l/m 0,00 h 0,00 h 43 W/m 7,8 km/h (2 Bft) 97,64 %
27.06.2016 21:00 16,1 C 15,0 C 14,2 C 93 % 2 lf 1017,9 hPa 0,0 l/m 0,00 h 0,00 h 11 W/m 4,5 km/h (1 Bft) 97,79 %
27.06.2016 22:00 15,2 C 13,5 C 12,6 C 93 % 2 lf 1018,5 hPa 0,0 l/m 0,00 h 0,00 h 5 W/m 2,0 km/h (1 Bft) 94,49 %
27.06.2016 23:00 14,2 C 13,0 C 12,2 C 93 % 10 lf 1018,7 hPa 0,0 l/m 0,00 h 0,00 h 0 W/m 0,0 km/h (0 Bft) 95,72 %
28.06.2016 00:00 13,8 C 13,3 C 12,4 C 94 % 15 lf 1018,8 hPa 0,0 l/m 0,00 h 0,00 h 0 W/m 0,0 km/h (0 Bft) 97,02 %
28.06.2016 01:00 13,8 C 13,4 C 12,6 C 95 % 15 lf 1018,9 hPa 0,0 l/m 0,00 h 0,00 h 0 W/m 0,0 km/h (0 Bft) 95,32 %
28.06.2016 02:00 13,8 C 13,4 C 12,7 C 96 % 15 lf 1018,7 hPa 0,0 l/m 0,00 h 0,00 h 0 W/m 0,0 km/h (0 Bft) 97,45 %
28.06.2016 03:00 13,8 C 13,6 C 12,8 C 96 % 14 lf 1018,5 hPa 0,0 l/m 0,00 h 0,00 h 0 W/m 1,1 km/h (1 Bft) 93,98 %
28.06.2016 04:00 13,8 C 13,1 C 12,1 C 96 % 12 lf 1018,0 hPa 0,0 l/m 0,00 h 0,00 h 0 W/m 0,5 km/h (0 Bft) 96,38 %
28.06.2016 05:00 13,4 C 13,0 C 12,0 C 97 % 15 lf 1017,9 hPa 0,0 l/m 0,00 h 0,00 h 6 W/m 1,5 km/h (1 Bft) 97,04 %
28.06.2016 06:00 13,6 C 13,7 C 12,7 C 97 % 14 lf 1017,7 hPa 0,0 l/m 0,07 h 0,00 h 54 W/m 1,5 km/h (1 Bft) 96,37 %
28.06.2016 07:00 14,2 C 15,7 C 14,3 C 98 % 2 lf 1017,7 hPa 0,0 l/m 0,97 h 0,00 h 175 W/m 6,0 km/h (2 Bft) 94,60 %
28.06.2016 08:00 15,1 C 17,5 C 15,3 C 98 % 0 lf 1017,6 hPa 0,0 l/m 0,57 h 0,00 h 254 W/m 11,0 km/h (2 Bft) 96,94 %
28.06.2016 09:00 16,5 C 19,2 C 17,8 C 95 % 0 lf 1017,5 hPa 0,0 l/m 0,60 h 0,00 h 314 W/m 14,7 km/h (3 Bft) 97,16 %
28.06.2016 10:00 18,0 C 21,6 C 21,5 C 86 % 0 lf 1017,2 hPa 0,0 l/m 0,93 h 0,00 h 481 W/m 13,2 km/h (3 Bft) 95,54 %
28.06.2016 11:00 20,1 C 24,0 C 23,7 C 78 % 0 lf 1016,9 hPa 0,0 l/m 0,70 h 0,00 h 493 W/m 14,2 km/h (3 Bft) 95,44 %
28.06.2016 12:00 20,6 C 25,0 C 23,4 C 73 % 0 lf 1016,5 hPa 0,0 l/m 0,70 h 0,00 h 562 W/m 13,5 km/h (3 Bft) 96,86 %
28.06.2016 13:00 22,1 C 27,8 C 24,8 C 68 % 0 lf 1015,7 hPa 0,0 l/m 0,73 h 0,00 h 655 W/m 13,4 km/h (3 Bft) 95,54 %
28.06.2016 14:00 22,7 C 28,0 C 27,1 C 65 % 0 lf 1015,2 hPa 0,0 l/m 0,70 h 0,00 h 663 W/m 13,2 km/h (3 Bft) 97,32 %
28.06.2016 15:00 23,9 C 30,0 C 31,1 C 60 % 0 lf 1014,7 hPa 0,0 l/m 0,90 h 0,00 h 796 W/m 18,2 km/h (3 Bft) 94,85 %
28.06.2016 16:00 24,2 C 29,3 C 32,2 C 58 % 0 lf 1014,1 hPa 0,0 l/m 0,87 h 0,00 h 704 W/m 14,6 km/h (3 Bft) 97,57 %
28.06.2016 17:00 23,7 C 25,9 C 25,2 C 57 % 0 lf 1013,4 hPa 0,0 l/m 0,87 h 0,00 h 449 W/m 17,8 km/h (3 Bft) 95,43 %
28.06.2016 18:00 22,6 C 23,6 C 22,5 C 60 % 0 lf 1012,8 hPa 0,0 l/m 0,93 h 0,00 h 292 W/m 16,3 km/h (3 Bft) 95,38 %
28.06.2016 19:00 21,9 C 22,6 C 21,5 C 63 % 0 lf 1012,3 hPa 0,0 l/m 0,87 h 0,00 h 198 W/m 15,4 km/h (3 Bft) 97,08 %
28.06.2016 20:00 21,0 C 20,8 C 19,6 C 66 % 0 lf 1011,8 hPa 0,0 l/m 0,07 h 0,00 h 68 W/m 11,1 km/h (2 Bft) 95,04 %
28.06.2016 21:00 19,8 C 19,2 C 17,6 C 68 % 0 lf 1011,3 hPa 0,0 l/m 0,00 h 0,00 h 12 W/m 9,3 km/h (2 Bft) 95,79 %
28.06.2016 22:00 19,0 C 18,4 C 16,7 C 71 % 0 lf 1010,9 hPa 0,0 l/m 0,00 h 0,00 h 0 W/m 4,4 km/h (1 Bft) 98,37 %
28.06.2016 23:00 18,6 C 18,4 C 16,7 C 75 % 0 lf 1010,4 hPa 0,0 l/m 0,00 h 0,07 h 0 W/m 6,2 km/h (2 Bft) 94,15 %
29.06.2016 00:00 18,3 C 16,7 C 15,5 C 81 % 9 lf 1009,9 hPa 2,4 l/m 0,00 h 0,67 h 0 W/m 9,8 km/h (2 Bft) 96,26 %
29.06.2016 01:00 16,7 C 15,6 C 14,4 C 92 % 15 lf 1009,4 hPa 2,2 l/m 0,00 h 0,50 h 0 W/m 12,6 km/h (3 Bft) 97,30 %
29.06.2016 02:00 16,2 C 15,6 C 14,4 C 95 % 15 lf 1009,2 hPa 1,0 l/m 0,00 h 0,70 h 0 W/m 20,6 km/h (4 Bft) 97,14 %
29.06.2016 03:00 15,9 C 15,4 C 14,3 C 96 % 15 lf 1009,4 hPa 0,6 l/m 0,00 h 0,50 h 0 W/m 11,1 km/h (2 Bft) 94,35 %
29.06.2016 04:00 15,2 C 14,4 C 13,7 C 96 % 15 lf 1009,7 hPa 0,0 l/m 0,00 h 0,00 h 0 W/m 4,5 km/h (1 Bft) 96,53 %
29.06.2016 05:00 14,6 C 13,9 C 12,8 C 96 % 15 lf 1010,0 hPa 0,0 l/m 0,10 h 0,00 h 15 W/m 14,7 km/h (3 Bft) 95,32 %
29.06.2016 06:00 14,0 C 13,5 C 12,5 C 96 % 14 lf 1010,5 hPa 0,0 l/m 0,40 h 0,00 h 64 W/m 20,3 km/h (4 Bft) 97,44 %
29.06.2016 07:00 13,9 C 13,7 C 13,0 C 93 % 9 lf 1011,0 hPa 0,0 l/m 0,00 h 0,00 h 84 W/m 19,6 km/h (3 Bft) 94,65 %
29.06.2016 08:00 14,5 C 14,8 C 13,8 C 90 % 0 lf 1011,3 hPa 0,0 l/m 0,27 h 0,00 h 212 W/m 24,3 km/h (4 Bft) 95,58 %
29.06.2016 09:00 14,9 C 16,6 C 15,3 C 85 % 0 lf 1011,8 hPa 0,0 l/m 0,37 h 0,00 h 241 W/m 27,0 km/h (4 Bft) 96,94 %
29.06.2016 10:00 16,1 C 19,2 C 18,0 C 82 % 0 lf 1012,0 hPa 0,0 l/m 0,63 h 0,00 h 429 W/m 31,9 km/h (5 Bft) 96,89 %
29.06.2016 11:00 18,1 C 24,2 C 21,9 C 77 % 0 lf 1012,3 hPa 0,0 l/m 0,93 h 0,00 h 769 W/m 30,6 km/h (5 Bft) 94,04 %
29.06.2016 12:00 19,5 C 24,9 C 22,5 C 72 % 0 lf 1012,5 hPa 0,0 l/m 0,73 h 0,00 h 710 W/m 30,2 km/h (5 Bft) 98,23 %
29.06.2016 13:00 20,6 C 26,4 C 22,9 C 66 % 0 lf 1012,4 hPa 0,0 l/m 0,90 h 0,00 h 865 W/m 28,3 km/h (4 Bft) 95,56 %
29.06.2016 14:00 21,4 C 26,5 C 26,3 C 62 % 0 lf 1012,4 hPa 0,0 l/m 0,73 h 0,00 h 798 W/m 25,4 km/h (4 Bft) 96,67 %
29.06.2016 15:00 22,0 C 26,9 C 28,9 C 59 % 0 lf 1012,2 hPa 0,0 l/m 1,00 h 0,00 h 816 W/m 27,8 km/h (4 Bft) 95,16 %
29.06.2016 16:00 21,8 C 24,9 C 26,6 C 57 % 0 lf 1012,0 hPa 0,0 l/m 0,77 h 0,00 h 579 W/m 25,6 km/h (4 Bft) 97,29 %
29.06.2016 17:00 21,7 C 23,8 C 23,7 C 58 % 0 lf 1011,5 hPa 0,0 l/m 0,67 h 0,00 h 370 W/m 19,7 km/h (3 Bft) 95,81 %
29.06.2016 18:00 21,1 C 22,1 C 21,1 C 59 % 0 lf 1011,1 hPa 0,0 l/m 0,63 h 0,00 h 327 W/m 19,5 km/h (3 Bft) 94,38 %
29.06.2016 19:00 20,4 C 20,5 C 19,2 C 63 % 0 lf 1011,2 hPa 0,0 l/m 0,00 h 0,00 h 84 W/m 10,5 km/h (2 Bft) 98,37 %
29.06.2016 20:00 19,8 C 19,5 C 18,1 C 66 % 0 lf 1011,0 hPa 0,0 l/m 0,00 h 0,00 h 41 W/m 8,1 km/h (2 Bft) 95,88 %
29.06.2016 21:00 19,1 C 18,4 C 16,6 C 68 % 0 lf 1010,8 hPa 0,0 l/m 0,00 h 0,00 h 11 W/m 4,5 km/h (1 Bft) 95,08 %
29.06.2016 22:00 18,3 C 17,8 C 15,7 C 73 % 0 lf 1010,6 hPa 0,0 l/m 0,00 h 0,00 h 0 W/m 3,5 km/h (1 Bft) 98,22 %
29.06.2016 23:00 17,7 C 16,9 C 15,2 C 77 % 0 lf 1010,5 hPa 0,0 l/m 0,00 h 0,43 h 0 W/m 6,0 km/h (2 Bft) 96,50 %
30.06.2016 00:00 17,0 C 15,6 C 13,9 C 82 % 2 lf 1010,5 hPa 0,2 l/m 0,00 h 0,87 h 0 W/m 12,7 km/h (3 Bft) 94,03 %
30.06.2016 01:00 16,9 C 16,7 C 14,9 C 84 % 0 lf 1010,1 hPa 0,0 l/m 0,00 h 0,00 h 0 W/m 15,0 km/h (3 Bft) 97,74 %
30.06.2016 02:00 17,0 C 17,2 C 15,6 C 82 % 0 lf 1010,0 hPa 0,0 l/m 0,00 h 0,03 h 0 W/m 16,2 km/h (3 Bft) 96,80 %
30.06.2016 03:00 16,9 C 16,4 C 14,9 C 84 % 0 lf 1010,2 hPa 0,0 l/m 0,00 h 0,40 h 0 W/m 15,3 km/h (3 Bft) 94,12 %
30.06.2016 04:00 16,0 C 14,8 C 13,6 C 87 % 8 lf 1010,3 hPa 0,0 l/m 0,00 h 0,30 h 0 W/m 16,5 km/h (3 Bft) 97,22 %
30.06.2016 05:00 15,4 C 15,4 C 13,7 C 89 % 0 lf 1010,5 hPa 0,0 l/m 0,00 h 0,03 h 7 W/m 12,2 km/h (2 Bft) 94,60 %
30.06.2016 06:00 15,3 C 15,3 C 13,9 C 91 % 1 lf 1010,7 hPa 0,0 l/m 0,00 h 0,27 h 19 W/m 18,0 km/h (3 Bft) 97,67 %
30.06.2016 07:00 15,5 C 16,3 C 15,3 C 92 % 0 lf 1010,8 hPa 0,0 l/m 0,00 h 0,00 h 95 W/m 16,2 km/h (3 Bft) 96,16 %
30.06.2016 08:00 16,3 C 17,3 C 16,5 C 89 % 0 lf 1011,1 hPa 0,0 l/m 0,00 h 0,00 h 142 W/m 19,7 km/h (3 Bft) 94,21 %
30.06.2016 09:00 17,0 C 18,5 C 17,5 C 86 % 0 lf 1011,4 hPa 0,0 l/m 0,00 h 0,00 h 193 W/m 19,7 km/h (3 Bft) 97,29 %
30.06.2016 10:00 17,9 C 20,6 C 19,5 C 83 % 0 lf 1011,6 hPa 0,0 l/m 0,53 h 0,00 h 354 W/m 22,2 km/h (4 Bft) 97,78 %
30.06.2016 11:00 18,9 C 20,7 C 20,0 C 79 % 0 lf 1011,7 hPa 0,0 l/m 0,13 h 0,03 h 263 W/m 21,3 km/h (4 Bft) 92,79 %
30.06.2016 12:00 19,2 C 21,1 C 20,7 C 79 % 0 lf 1011,9 hPa 0,0 l/m 0,17 h 0,00 h 302 W/m 20,6 km/h (4 Bft) 97,86 %
30.06.2016 13:00 19,9 C 22,3 C 21,5 C 78 % 0 lf 1012,0 hPa 0,0 l/m 0,03 h 0,00 h 291 W/m 17,3 km/h (3 Bft) 96,10 %
30.06.2016 14:00 20,1 C 21,0 C 19,9 C 77 % 0 lf 1011,9 hPa 0,0 l/m 0,00 h 0,00 h 154 W/m 18,3 km/h (3 Bft) 95,05 %
30.06.2016 15:00 20,3 C 22,6 C 21,8 C 76 % 0 lf 1011,9 hPa 0,0 l/m 0,20 h 0,00 h 323 W/m 23,4 km/h (4 Bft) 96,32 %
30.06.2016 16:00 21,0 C 22,9 C 22,5 C 75 % 0 lf 1011,8 hPa 0,0 l/m 0,43 h 0,00 h 320 W/m 20,1 km/h (4 Bft) 96,95 %
30.06.2016 17:00 21,1 C 22,4 C 21,4 C 77 % 0 lf 1011,7 hPa 0,0 l/m 0,33 h 0,17 h 271 W/m 18,3 km/h (3 Bft) 96,32 %
30.06.2016 18:00 21,1 C 22,0 C 21,0 C 78 % 0 lf 1011,5 hPa 0,0 l/m 0,17 h 0,00 h 181 W/m 17,8 km/h (3 Bft) 95,26 %
30.06.2016 19:00 20,4 C 20,2 C 18,8 C 82 % 0 lf 1011,4 hPa 0,0 l/m 0,00 h 0,53 h 60 W/m 13,3 km/h (3 Bft) 96,78 %
30.06.2016 20:00 19,8 C 19,3 C 17,5 C 87 % 11 lf 1011,7 hPa 0,2 l/m 0,13 h 0,37 h 59 W/m 10,6 km/h (2 Bft) 97,89 %
30.06.2016 21:00 18,9 C 18,6 C 16,8 C 90 % 0 lf 1011,8 hPa 0,0 l/m 0,00 h 0,20 h 13 W/m 17,5 km/h (3 Bft) 92,85 %
30.06.2016 22:00 18,5 C 18,3 C 16,9 C 90 % 0 lf 1012,3 hPa 0,0 l/m 0,00 h 0,00 h 0 W/m 17,2 km/h (3 Bft) 97,40 %
30.06.2016 23:00 18,1 C 17,5 C 16,0 C 90 % 0 lf 1012,6 hPa 0,0 l/m 0,00 h 0,00 h 0 W/m 12,7 km/h (3 Bft) 97,65 %
01.07.2016 00:00 17,5 C 17,2 C 15,7 C 92 % 0 lf 1012,6 hPa 0,0 l/m 0,00 h 0,00 h 0 W/m 12,4 km/h (3 Bft) 90,56 %
01.07.2016 01:00 17,2 C 17,0 C 15,7 C 93 % 0 lf 1012,5 hPa 0,0 l/m 0,00 h 0,00 h 0 W/m 12,8 km/h (3 Bft) 95,71 %
01.07.2016 02:00 17,3 C 17,2 C 16,1 C 93 % 0 lf 1012,1 hPa 0,0 l/m 0,00 h 0,00 h 0 W/m 14,8 km/h (3 Bft) 97,86 %
01.07.2016 03:00 17,5 C 17,6 C 16,1 C 93 % 0 lf 1012,0 hPa 0,0 l/m 0,00 h 0,00 h 0 W/m 11,2 km/h (2 Bft) 94,14 %
01.07.2016 04:00 17,5 C 17,3 C 15,9 C 93 % 0 lf 1011,8 hPa 0,0 l/m 0,00 h 0,00 h 0 W/m 13,3 km/h (3 Bft) 96,62 %
01.07.2016 05:00 17,2 C 16,8 C 15,4 C 94 % 1 lf 1011,8 hPa 0,0 l/m 0,00 h 0,00 h 8 W/m 9,6 km/h (2 Bft) 96,16 %
01.07.2016 06:00 17,2 C 17,6 C 16,3 C 96 % 0 lf 1011,6 hPa 0,0 l/m 0,03 h 0,00 h 46 W/m 12,3 km/h (3 Bft) 96,02 %
01.07.2016 07:00 17,8 C 19,2 C 17,8 C 95 % 0 lf 1011,6 hPa 0,0 l/m 0,23 h 0,00 h 111 W/m 14,7 km/h (3 Bft) 97,15 %
01.07.2016 08:00 18,8 C 20,1 C 19,1 C 91 % 0 lf 1012,0 hPa 0,0 l/m 0,00 h 0,00 h 162 W/m 22,1 km/h (4 Bft) 95,94 %
01.07.2016 09:00 19,6 C 21,0 C 20,1 C 85 % 0 lf 1012,2 hPa 0,0 l/m 0,10 h 0,00 h 214 W/m 24,5 km/h (4 Bft) 95,16 %
01.07.2016 10:00 19,9 C 21,7 C 20,6 C 82 % 0 lf 1012,3 hPa 0,0 l/m 0,17 h 0,00 h 267 W/m 30,3 km/h (5 Bft) 98,79 %
01.07.2016 11:00 20,2 C 22,4 C 21,6 C 80 % 0 lf 1012,6 hPa 0,0 l/m 0,30 h 0,00 h 354 W/m 31,0 km/h (5 Bft) 93,67 %
01.07.2016 12:00 19,9 C 21,0 C 20,4 C 83 % 0 lf 1012,8 hPa 0,0 l/m 0,03 h 0,13 h 229 W/m 19,9 km/h (4 Bft) 94,87 %
01.07.2016 13:00 19,7 C 20,5 C 19,9 C 86 % 2 lf 1012,7 hPa 0,0 l/m 0,13 h 0,20 h 264 W/m 19,3 km/h (3 Bft) 97,44 %
01.07.2016 14:00 21,1 C 24,9 C 24,3 C 81 % 0 lf 1012,1 hPa 0,0 l/m 0,60 h 0,00 h 488 W/m 25,9 km/h (4 Bft) 95,94 %
01.07.2016 15:00 21,2 C 23,0 C 22,6 C 78 % 0 lf 1012,1 hPa 0,0 l/m 0,47 h 0,00 h 366 W/m 28,0 km/h (4 Bft) 95,01 %
01.07.2016 16:00 21,0 C 22,9 C 22,7 C 77 % 0 lf 1012,1 hPa 0,0 l/m 0,53 h 0,00 h 352 W/m 28,8 km/h (4 Bft) 96,58 %
01.07.2016 17:00 21,9 C 24,7 C 24,3 C 75 % 0 lf 1011,7 hPa 0,0 l/m 0,90 h 0,00 h 472 W/m 27,8 km/h (4 Bft) 96,73 %
01.07.2016 18:00 21,9 C 23,2 C 22,4 C 73 % 0 lf 1011,4 hPa 0,0 l/m 0,83 h 0,00 h 308 W/m 27,6 km/h (4 Bft) 95,94 %
01.07.2016 19:00 21,8 C 22,6 C 21,3 C 73 % 0 lf 1010,8 hPa 0,0 l/m 1,00 h 0,00 h 272 W/m 29,9 km/h (5 Bft) 95,52 %
01.07.2016 20:00 21,3 C 21,4 C 19,8 C 75 % 0 lf 1010,2 hPa 0,0 l/m 0,73 h 0,00 h 98 W/m 27,7 km/h (4 Bft) 97,77 %
01.07.2016 21:00 20,6 C 20,4 C 18,6 C 78 % 0 lf 1009,7 hPa 0,0 l/m 0,57 h 0,00 h 25 W/m 22,2 km/h (4 Bft) 95,01 %
01.07.2016 22:00 19,9 C 19,4 C 17,7 C 81 % 0 lf 1010,0 hPa 0,0 l/m 0,00 h 0,00 h 5 W/m 20,8 km/h (4 Bft) 95,59 %
01.07.2016 23:00 19,6 C 19,4 C 17,8 C 83 % 0 lf 1009,7 hPa 0,0 l/m 0,00 h 0,00 h 0 W/m 22,3 km/h (4 Bft) 98,71 %
02.07.2016 00:00 19,1 C 18,0 C 16,6 C 85 % 8 lf 1009,7 hPa 1,6 l/m 0,00 h 0,37 h 0 W/m 11,8 km/h (2 Bft) 95,09 %
02.07.2016 01:00 17,5 C 16,1 C 15,0 C 91 % 15 lf 1009,9 hPa 1,6 l/m 0,00 h 0,63 h 0 W/m 14,7 km/h (3 Bft) 94,80 %
02.07.2016 02:00 15,7 C 14,8 C 13,9 C 94 % 15 lf 1010,2 hPa 2,2 l/m 0,00 h 0,83 h 0 W/m 18,3 km/h (3 Bft) 98,01 %
02.07.2016 03:00 14,6 C 13,7 C 13,0 C 95 % 15 lf 1010,6 hPa 0,4 l/m 0,00 h 0,30 h 0 W/m 22,2 km/h (4 Bft) 94,95 %
02.07.2016 04:00 13,5 C 12,8 C 12,2 C 95 % 15 lf 1010,9 hPa 0,0 l/m 0,00 h 0,00 h 0 W/m 17,9 km/h (3 Bft) 95,64 %
02.07.2016 05:00 13,2 C 12,8 C 11,7 C 95 % 14 lf 1011,3 hPa 0,0 l/m 0,00 h 0,00 h 9 W/m 17,5 km/h (3 Bft) 97,29 %
02.07.2016 06:00 13,1 C 12,9 C 11,9 C 94 % 4 lf 1011,5 hPa 0,0 l/m 0,00 h 0,00 h 36 W/m 16,6 km/h (3 Bft) 95,16 %
02.07.2016 07:00 13,3 C 13,3 C 12,3 C 94 % 0 lf 1011,9 hPa 0,0 l/m 0,00 h 0,00 h 82 W/m 19,5 km/h (3 Bft) 97,36 %
02.07.2016 08:00 13,7 C 14,3 C 13,2 C 93 % 0 lf 1012,3 hPa 0,0 l/m 0,00 h 0,00 h 146 W/m 20,6 km/h (4 Bft) 96,58 %
02.07.2016 09:00 14,3 C 16,8 C 14,9 C 91 % 0 lf 1012,8 hPa 0,0 l/m 0,30 h 0,00 h 278 W/m 21,3 km/h (4 Bft) 93,59 %
02.07.2016 10:00 16,0 C 20,5 C 18,6 C 84 % 0 lf 1013,1 hPa 0,0 l/m 0,50 h 0,00 h 482 W/m 21,7 km/h (4 Bft) 98,86 %
02.07.2016 11:00 17,3 C 22,4 C 19,9 C 75 % 0 lf 1013,1 hPa 0,0 l/m 0,47 h 0,00 h 494 W/m 20,1 km/h (4 Bft) 96,87 %
02.07.2016 12:00 18,8 C 24,3 C 21,7 C 67 % 0 lf 1013,1 hPa 0,0 l/m 0,57 h 0,00 h 630 W/m 26,2 km/h (4 Bft) 93,10 %
02.07.2016 13:00 17,8 C 21,2 C 19,0 C 68 % 1 lf 1013,8 hPa 0,0 l/m 0,53 h 0,20 h 526 W/m 26,0 km/h (4 Bft) 97,66 %
02.07.2016 14:00 17,5 C 21,7 C 22,5 C 70 % 0 lf 1014,1 hPa 0,0 l/m 0,70 h 0,00 h 739 W/m 31,4 km/h (5 Bft) 97,08 %
02.07.2016 15:00 19,4 C 24,1 C 27,3 C 61 % 0 lf 1014,1 hPa 0,0 l/m 0,93 h 0,00 h 844 W/m 32,3 km/h (5 Bft) 94,73 %
02.07.2016 16:00 16,7 C 16,5 C 16,6 C 71 % 7 lf 1015,2 hPa 0,4 l/m 0,47 h 0,20 h 304 W/m 25,2 km/h (4 Bft) 96,72 %
02.07.2016 17:00 16,7 C 19,8 C 19,9 C 75 % 0 lf 1015,3 hPa 0,0 l/m 0,90 h 0,00 h 447 W/m 19,0 km/h (3 Bft) 96,48 %
02.07.2016 18:00 17,3 C 18,1 C 16,6 C 70 % 0 lf 1015,3 hPa 0,0 l/m 0,90 h 0,00 h 383 W/m 20,1 km/h (4 Bft) 94,76 %
02.07.2016 19:00 17,2 C 17,8 C 16,3 C 70 % 0 lf 1015,7 hPa 0,0 l/m 0,53 h 0,00 h 209 W/m 17,3 km/h (3 Bft) 96,95 %
02.07.2016 20:00 16,9 C 16,7 C 15,4 C 73 % 0 lf 1015,9 hPa 0,0 l/m 0,53 h 0,00 h 79 W/m 9,0 km/h (2 Bft) 96,49 %
02.07.2016 21:00 16,2 C 15,3 C 13,8 C 77 % 0 lf 1016,5 hPa 0,0 l/m 0,00 h 0,00 h 15 W/m 7,2 km/h (2 Bft) 95,95 %
02.07.2016 22:00 15,3 C 14,5 C 13,0 C 79 % 0 lf 1017,0 hPa 0,0 l/m 0,00 h 0,00 h 3 W/m 8,6 km/h (2 Bft) 95,24 %
02.07.2016 23:00 14,5 C 13,8 C 12,1 C 79 % 0 lf 1017,4 hPa 0,0 l/m 0,00 h 0,00 h 1 W/m 9,2 km/h (2 Bft) 97,45 %
03.07.2016 00:00 13,6 C 12,3 C 10,6 C 80 % 0 lf 1017,6 hPa 0,0 l/m 0,00 h 0,00 h 3 W/m 7,1 km/h (2 Bft) 96,39 %
03.07.2016 01:00 12,6 C 12,2 C 10,7 C 82 % 0 lf 1017,7 hPa 0,0 l/m 0,00 h 0,00 h 0 W/m 11,5 km/h (2 Bft) 95,01 %
03.07.2016 02:00 12,3 C 12,1 C 10,7 C 82 % 0 lf 1017,7 hPa 0,0 l/m 0,00 h 0,00 h 0 W/m 14,2 km/h (3 Bft) 95,71 %
03.07.2016 03:00 12,1 C 11,8 C 10,6 C 84 % 0 lf 1017,6 hPa 0,0 l/m 0,00 h 0,00 h 0 W/m 13,5 km/h (3 Bft) 96,09 %
03.07.2016 04:00 11,8 C 11,6 C 10,2 C 85 % 0 lf 1017,7 hPa 0,0 l/m 0,00 h 0,00 h 0 W/m 12,9 km/h (3 Bft) 96,44 %
03.07.2016 05:00 11,8 C 12,1 C 10,6 C 86 % 0 lf 1017,8 hPa 0,0 l/m 0,00 h 0,00 h 10 W/m 15,3 km/h (3 Bft) 94,85 %
03.07.2016 06:00 12,1 C 12,5 C 11,0 C 86 % 0 lf 1018,1 hPa 0,0 l/m 0,57 h 0,00 h 69 W/m 14,5 km/h (3 Bft) 96,08 %
03.07.2016 07:00 12,9 C 14,0 C 12,9 C 87 % 0 lf 1018,3 hPa 0,0 l/m 0,00 h 0,00 h 94 W/m 16,2 km/h (3 Bft) 95,77 %
03.07.2016 08:00 14,0 C 15,7 C 14,8 C 86 % 0 lf 1018,6 hPa 0,0 l/m 0,37 h 0,00 h 202 W/m 18,4 km/h (3 Bft) 97,11 %
03.07.2016 09:00 15,3 C 19,0 C 16,3 C 83 % 0 lf 1018,8 hPa 0,0 l/m 0,70 h 0,00 h 452 W/m 16,4 km/h (3 Bft) 95,02 %
03.07.2016 10:00 17,1 C 21,7 C 19,9 C 77 % 0 lf 1018,9 hPa 0,0 l/m 0,63 h 0,00 h 542 W/m 19,5 km/h (3 Bft) 96,32 %
03.07.2016 11:00 17,8 C 22,2 C 20,5 C 74 % 0 lf 1018,9 hPa 0,0 l/m 0,70 h 0,00 h 548 W/m 21,0 km/h (4 Bft) 96,04 %
03.07.2016 12:00 19,1 C 22,8 C 21,1 C 71 % 3 lf 1018,7 hPa 0,8 l/m 0,27 h 0,33 h 452 W/m 15,9 km/h (3 Bft) 95,73 %
03.07.2016 13:00 18,3 C 19,8 C 16,1 C 74 % 7 lf 1019,0 hPa 0,0 l/m 0,27 h 0,07 h 441 W/m 17,9 km/h (3 Bft) 95,53 %
03.07.2016 14:00 18,9 C 26,1 C 26,4 C 67 % 0 lf 1019,0 hPa 0,0 l/m 1,00 h 0,00 h 882 W/m 21,5 km/h (4 Bft) 97,47 %
03.07.2016 15:00 17,3 C 16,2 C 16,6 C 76 % 11 lf 1019,4 hPa 3,2 l/m 0,17 h 0,67 h 219 W/m 22,9 km/h (4 Bft) 94,74 %
03.07.2016 16:00 15,8 C 18,2 C 18,1 C 89 % 6 lf 1019,4 hPa 0,0 l/m 0,43 h 0,10 h 488 W/m 14,3 km/h (3 Bft) 95,65 %
03.07.2016 17:00 18,3 C 22,3 C 19,9 C 77 % 0 lf 1019,2 hPa 0,0 l/m 0,93 h 0,00 h 595 W/m 18,4 km/h (3 Bft) 97,50 %
03.07.2016 18:00 19,2 C 19,9 C 17,6 C 69 % 0 lf 1019,3 hPa 0,0 l/m 0,80 h 0,00 h 415 W/m 17,3 km/h (3 Bft) 94,84 %
03.07.2016 19:00 18,9 C 19,7 C 17,9 C 70 % 0 lf 1019,3 hPa 0,0 l/m 0,87 h 0,00 h 295 W/m 16,1 km/h (3 Bft) 95,87 %
03.07.2016 20:00 18,6 C 18,4 C 16,4 C 71 % 0 lf 1019,7 hPa 0,0 l/m 0,80 h 0,00 h 103 W/m 10,4 km/h (2 Bft) 96,51 %
03.07.2016 21:00 17,8 C 16,8 C 14,9 C 74 % 0 lf 1020,1 hPa 0,0 l/m 0,57 h 0,00 h 24 W/m 5,4 km/h (1 Bft) 96,30 %
03.07.2016 22:00 16,5 C 14,7 C 12,6 C 78 % 0 lf 1020,4 hPa 0,0 l/m 0,00 h 0,00 h 4 W/m 4,8 km/h (1 Bft) 96,92 %
03.07.2016 23:00 15,2 C 14,5 C 12,6 C 83 % 0 lf 1020,7 hPa 0,0 l/m 0,00 h 0,00 h 0 W/m 6,0 km/h (2 Bft) 94,34 %
Min-Datum _ 03.07.16 03.07.16 03.07.16 28.06.16 27.06.16 29.06.16 - - - - 27.06.16 01.07.16
_ Min-Zeit 04:42 04:38 00:28 17:00 00:00 01:46 - - - - 21:52 00:02
Minimum _ 11,7 C 11,1 C 10,0 C 55 % 0 lf 1009,1 hPa - - - - 0,0 km/h (0 Bft) 11,11 %
Max-Datum _ 28.06.16 28.06.16 28.06.16 28.06.16 27.06.16 03.07.16 03.07.16 27.06.16 27.06.16 02.07.16 01.07.16 27.06.16
_ Max-Zeit 16:52 15:04 16:06 06:58 15:22 23:50 15:24 05:42 10:44 13:36 11:08 00:32
Maximum _ 24,6 C 33,3 C 34,4 C 98 % 15 lf 1020,9 hPa 3,2 l/m 0,03 h 0,03 h 1215 W/m 52,3 km/h
W-SW (7 Bft)
100,00 %
Durchschnitt _ 17,3 C 18,3 C 17,2 C 82 % 3 lf 1014,2 hPa #20,0 l/m #47:38 h #12:06 h 274 W/m 16,2 km/h (3 Bft) 96,06 %
© 2016 W. Hausmann